sensor_id;sensor_type;location;lat;lon;timestamp;pressure;altitude;pressure_sealevel;temperature;humidity
65897;BME280;52677;50.898;10.854;2024-02-14T00:00:27;98698.50;;;4.10;100.00
65897;BME280;52677;50.898;10.854;2024-02-14T00:02:28;98696.44;;;4.07;100.00
65897;BME280;52677;50.898;10.854;2024-02-14T00:04:28;98695.78;;;4.10;100.00
65897;BME280;52677;50.898;10.854;2024-02-14T00:06:29;98699.47;;;4.14;100.00
65897;BME280;52677;50.898;10.854;2024-02-14T00:08:29;98693.38;;;4.08;100.00
65897;BME280;52677;50.898;10.854;2024-02-14T00:10:29;98690.63;;;4.08;100.00
65897;BME280;52677;50.898;10.854;2024-02-14T00:12:30;98698.03;;;4.08;100.00
65897;BME280;52677;50.898;10.854;2024-02-14T00:14:30;98696.44;;;4.07;100.00
65897;BME280;52677;50.898;10.854;2024-02-14T00:16:30;98696.13;;;4.08;100.00
65897;BME280;52677;50.898;10.854;2024-02-14T00:18:31;98691.28;;;4.05;100.00
65897;BME280;52677;50.898;10.854;2024-02-14T00:20:31;98699.47;;;4.14;100.00
65897;BME280;52677;50.898;10.854;2024-02-14T00:22:32;98703.59;;;4.20;100.00
65897;BME280;52677;50.898;10.854;2024-02-14T00:24:33;98706.50;;;4.23;100.00
65897;BME280;52677;50.898;10.854;2024-02-14T00:26:34;98704.09;;;4.22;100.00
65897;BME280;52677;50.898;10.854;2024-02-14T00:28:34;98700.59;;;4.13;100.00
65897;BME280;52677;50.898;10.854;2024-02-14T00:30:35;98693.84;;;4.10;100.00
65897;BME280;52677;50.898;10.854;2024-02-14T00:32:35;98701.88;;;4.15;100.00
65897;BME280;52677;50.898;10.854;2024-02-14T00:34:35;98700.91;;;4.11;100.00
65897;BME280;52677;50.898;10.854;2024-02-14T00:36:36;98708.75;;;4.21;100.00
65897;BME280;52677;50.898;10.854;2024-02-14T00:38:36;98708.44;;;4.23;100.00
65897;BME280;52677;50.898;10.854;2024-02-14T00:40:36;98703.94;;;4.18;100.00
65897;BME280;52677;50.898;10.854;2024-02-14T00:42:37;98702.69;;;4.16;100.00
65897;BME280;52677;50.898;10.854;2024-02-14T00:44:37;98708.78;;;4.13;100.00
65897;BME280;52677;50.898;10.854;2024-02-14T00:46:37;98693.03;;;4.10;100.00
65897;BME280;52677;50.898;10.854;2024-02-14T00:48:38;98704.66;;;4.07;100.00
65897;BME280;52677;50.898;10.854;2024-02-14T00:50:38;98692.09;;;4.06;100.00
65897;BME280;52677;50.898;10.854;2024-02-14T00:52:38;98687.47;;;3.98;100.00
65897;BME280;52677;50.898;10.854;2024-02-14T00:54:39;98695.69;;;3.98;100.00
65897;BME280;52677;50.898;10.854;2024-02-14T00:56:40;98701.97;;;3.98;100.00
65897;BME280;52677;50.898;10.854;2024-02-14T00:58:40;98686.00;;;4.00;100.00
65897;BME280;52677;50.898;10.854;2024-02-14T01:00:41;98695.81;;;4.01;100.00
65897;BME280;52677;50.898;10.854;2024-02-14T01:02:41;98690.69;;;4.00;100.00
65897;BME280;52677;50.898;10.854;2024-02-14T01:04:41;98693.09;;;4.01;100.00
65897;BME280;52677;50.898;10.854;2024-02-14T01:06:42;98685.66;;;4.02;100.00
65897;BME280;52677;50.898;10.854;2024-02-14T01:08:42;98680.38;;;3.97;100.00
65897;BME280;52677;50.898;10.854;2024-02-14T01:10:43;98690.22;;;3.98;100.00
65897;BME280;52677;50.898;10.854;2024-02-14T01:12:43;98680.88;;;3.99;100.00
65897;BME280;52677;50.898;10.854;2024-02-14T01:14:43;98675.22;;;3.95;100.00
65897;BME280;52677;50.898;10.854;2024-02-14T01:16:45;98676.69;;;3.92;100.00
65897;BME280;52677;50.898;10.854;2024-02-14T01:18:45;98676.03;;;3.95;100.00
65897;BME280;52677;50.898;10.854;2024-02-14T01:20:45;98671.69;;;3.94;100.00
65897;BME280;52677;50.898;10.854;2024-02-14T01:22:46;98677.13;;;4.03;100.00
65897;BME280;52677;50.898;10.854;2024-02-14T01:24:46;98677.91;;;4.04;100.00
65897;BME280;52677;50.898;10.854;2024-02-14T01:26:46;98679.84;;;4.03;100.00
65897;BME280;52677;50.898;10.854;2024-02-14T01:28:47;98681.94;;;4.06;100.00
65897;BME280;52677;50.898;10.854;2024-02-14T01:30:47;98674.53;;;4.07;100.00
65897;BME280;52677;50.898;10.854;2024-02-14T01:32:48;98681.28;;;4.09;100.00
65897;BME280;52677;50.898;10.854;2024-02-14T01:34:48;98683.22;;;4.09;100.00
65897;BME280;52677;50.898;10.854;2024-02-14T01:36:49;98680.31;;;4.05;100.00
65897;BME280;52677;50.898;10.854;2024-02-14T01:38:49;98688.88;;;4.04;100.00
65897;BME280;52677;50.898;10.854;2024-02-14T01:40:50;98688.88;;;4.04;100.00
65897;BME280;52677;50.898;10.854;2024-02-14T01:42:50;98681.31;;;4.01;100.00
65897;BME280;52677;50.898;10.854;2024-02-14T01:44:52;98685.66;;;4.02;100.00
65897;BME280;52677;50.898;10.854;2024-02-14T01:46:53;98677.00;;;4.00;100.00
65897;BME280;52677;50.898;10.854;2024-02-14T01:48:53;98676.03;;;3.95;100.00
65897;BME280;52677;50.898;10.854;2024-02-14T01:50:56;98669.28;;;3.93;100.00
65897;BME280;52677;50.898;10.854;2024-02-14T01:52:58;98674.28;;;3.91;100.00
65897;BME280;52677;50.898;10.854;2024-02-14T01:54:59;98672.19;;;3.88;100.00
65897;BME280;52677;50.898;10.854;2024-02-14T01:57:00;98670.78;;;3.82;100.00
65897;BME280;52677;50.898;10.854;2024-02-14T01:59:01;98662.59;;;3.82;100.00
65897;BME280;52677;50.898;10.854;2024-02-14T02:01:01;98656.63;;;3.80;100.00
65897;BME280;52677;50.898;10.854;2024-02-14T02:03:03;98666.75;;;3.79;100.00
65897;BME280;52677;50.898;10.854;2024-02-14T02:05:04;98656.47;;;3.76;100.00
65897;BME280;52677;50.898;10.854;2024-02-14T02:07:05;98665.03;;;3.75;100.00
65897;BME280;52677;50.898;10.854;2024-02-14T02:09:05;98655.22;;;3.74;100.00
65897;BME280;52677;50.898;10.854;2024-02-14T02:11:07;98650.03;;;3.72;100.00
65897;BME280;52677;50.898;10.854;2024-02-14T02:13:09;98647.31;;;3.72;100.00
65897;BME280;52677;50.898;10.854;2024-02-14T02:15:09;98648.13;;;3.73;100.00
65897;BME280;52677;50.898;10.854;2024-02-14T02:17:13;98645.25;;;3.69;100.00
65897;BME280;52677;50.898;10.854;2024-02-14T02:19:13;98645.25;;;3.69;100.00
65897;BME280;52677;50.898;10.854;2024-02-14T02:21:15;98635.44;;;3.68;100.00
65897;BME280;52677;50.898;10.854;2024-02-14T02:23:19;98638.97;;;3.69;100.00
65897;BME280;52677;50.898;10.854;2024-02-14T02:25:19;98640.72;;;3.73;100.00
65897;BME280;52677;50.898;10.854;2024-02-14T02:27:25;98633.44;;;3.77;100.00
65897;BME280;52677;50.898;10.854;2024-02-14T02:29:25;98634.41;;;3.81;100.00
65897;BME280;52677;50.898;10.854;2024-02-14T02:31:26;98627.31;;;3.80;100.00
65897;BME280;52677;50.898;10.854;2024-02-14T02:33:26;98634.41;;;3.81;100.00
65897;BME280;52677;50.898;10.854;2024-02-14T02:35:27;98633.06;;;3.87;100.00
65897;BME280;52677;50.898;10.854;2024-02-14T02:37:28;98625.16;;;3.94;100.00
65897;BME280;52677;50.898;10.854;2024-02-14T02:39:29;98626.22;;;4.02;100.00
65897;BME280;52677;50.898;10.854;2024-02-14T02:41:30;98628.63;;;4.04;100.00
65897;BME280;52677;50.898;10.854;2024-02-14T02:43:32;98622.97;;;4.09;100.00
65897;BME280;52677;50.898;10.854;2024-02-14T02:45:33;98607.16;;;4.14;100.00
65897;BME280;52677;50.898;10.854;2024-02-14T02:47:33;98607.09;;;4.23;100.00
65897;BME280;52677;50.898;10.854;2024-02-14T02:49:33;98617.38;;;4.26;100.00
65897;BME280;52677;50.898;10.854;2024-02-14T02:51:34;98606.56;;;4.30;100.00
65897;BME280;52677;50.898;10.854;2024-02-14T02:53:34;98603.28;;;4.36;100.00
65897;BME280;52677;50.898;10.854;2024-02-14T02:55:35;98603.09;;;4.41;100.00
65897;BME280;52677;50.898;10.854;2024-02-14T02:57:37;98602.22;;;4.49;100.00
65897;BME280;52677;50.898;10.854;2024-02-14T02:59:39;98601.56;;;4.53;100.00
65897;BME280;52677;50.898;10.854;2024-02-14T03:01:43;98598.75;;;4.61;100.00
65897;BME280;52677;50.898;10.854;2024-02-14T03:03:44;98592.78;;;4.59;100.00
65897;BME280;52677;50.898;10.854;2024-02-14T03:05:44;98592.78;;;4.59;100.00
65897;BME280;52677;50.898;10.854;2024-02-14T03:07:46;98595.53;;;4.59;100.00
65897;BME280;52677;50.898;10.854;2024-02-14T03:09:48;98586.97;;;4.61;100.00
65897;BME280;52677;50.898;10.854;2024-02-14T03:11:49;98584.47;;;4.56;100.00
65897;BME280;52677;50.898;10.854;2024-02-14T03:13:49;98577.22;;;4.51;100.00
65897;BME280;52677;50.898;10.854;2024-02-14T03:15:49;98590.81;;;4.47;100.00
65897;BME280;52677;50.898;10.854;2024-02-14T03:17:50;98588.31;;;4.55;100.00
65897;BME280;52677;50.898;10.854;2024-02-14T03:19:50;98594.94;;;4.54;100.00
65897;BME280;52677;50.898;10.854;2024-02-14T03:21:52;98602.63;;;4.60;100.00
65897;BME280;52677;50.898;10.854;2024-02-14T03:23:52;98597.28;;;4.64;100.00
65897;BME280;52677;50.898;10.854;2024-02-14T03:25:54;98593.53;;;4.68;100.00
65897;BME280;52677;50.898;10.854;2024-02-14T03:27:54;98597.19;;;4.72;100.00
65897;BME280;52677;50.898;10.854;2024-02-14T03:29:57;98604.47;;;4.68;100.00
65897;BME280;52677;50.898;10.854;2024-02-14T03:31:59;98595.91;;;4.70;100.00
65897;BME280;52677;50.898;10.854;2024-02-14T03:34:04;98597.06;;;4.69;100.00
65897;BME280;52677;50.898;10.854;2024-02-14T03:36:05;98586.69;;;4.74;100.00
65897;BME280;52677;50.898;10.854;2024-02-14T03:38:05;98594.47;;;4.72;100.00
65897;BME280;52677;50.898;10.854;2024-02-14T03:40:08;98575.59;;;4.71;100.00
65897;BME280;52677;50.898;10.854;2024-02-14T03:42:09;98577.22;;;4.72;100.00
65897;BME280;52677;50.898;10.854;2024-02-14T03:44:10;98573.34;;;4.73;100.00
65897;BME280;52677;50.898;10.854;2024-02-14T03:46:10;98561.44;;;4.69;100.00
65897;BME280;52677;50.898;10.854;2024-02-14T03:48:13;98567.84;;;4.73;100.00
65897;BME280;52677;50.898;10.854;2024-02-14T03:50:13;98559.75;;;4.76;100.00
65897;BME280;52677;50.898;10.854;2024-02-14T03:52:15;98542.38;;;4.72;100.00
65897;BME280;52677;50.898;10.854;2024-02-14T03:54:15;98540.09;;;4.74;100.00
65897;BME280;52677;50.898;10.854;2024-02-14T03:56:15;98549.66;;;4.68;100.00
65897;BME280;52677;50.898;10.854;2024-02-14T03:58:16;98549.66;;;4.68;100.00
65897;BME280;52677;50.898;10.854;2024-02-14T04:00:20;98554.00;;;4.69;100.00
65897;BME280;52677;50.898;10.854;2024-02-14T04:02:22;98554.00;;;4.69;100.00
65897;BME280;52677;50.898;10.854;2024-02-14T04:04:28;98559.72;;;4.64;100.00
65897;BME280;52677;50.898;10.854;2024-02-14T04:06:28;98543.03;;;4.69;100.00
65897;BME280;52677;50.898;10.854;2024-02-14T04:08:31;98559.28;;;4.74;100.00
65897;BME280;52677;50.898;10.854;2024-02-14T04:10:33;98555.78;;;4.86;100.00
65897;BME280;52677;50.898;10.854;2024-02-14T04:12:33;98559.13;;;4.92;100.00
65897;BME280;52677;50.898;10.854;2024-02-14T04:14:34;98558.66;;;4.90;100.00
65897;BME280;52677;50.898;10.854;2024-02-14T04:16:34;98566.41;;;4.88;100.00
65897;BME280;52677;50.898;10.854;2024-02-14T04:18:36;98570.53;;;4.94;100.00
65897;BME280;52677;50.898;10.854;2024-02-14T04:20:36;98564.25;;;4.93;100.00
65897;BME280;52677;50.898;10.854;2024-02-14T04:22:37;98570.09;;;4.92;100.00
65897;BME280;52677;50.898;10.854;2024-02-14T04:24:38;98565.28;;;4.89;100.00
65897;BME280;52677;50.898;10.854;2024-02-14T04:26:38;98562.53;;;4.89;100.00
65897;BME280;52677;50.898;10.854;2024-02-14T04:28:39;98562.53;;;4.89;100.00
65897;BME280;52677;50.898;10.854;2024-02-14T04:30:40;98555.91;;;4.90;100.00
65897;BME280;52677;50.898;10.854;2024-02-14T04:32:41;98561.25;;;4.86;100.00
65897;BME280;52677;50.898;10.854;2024-02-14T04:34:43;98556.47;;;4.83;100.00
65897;BME280;52677;50.898;10.854;2024-02-14T04:36:43;98546.03;;;4.76;100.00
65897;BME280;52677;50.898;10.854;2024-02-14T04:38:44;98546.38;;;4.75;100.00
65897;BME280;52677;50.898;10.854;2024-02-14T04:40:44;98542.97;;;4.78;100.00
65897;BME280;52677;50.898;10.854;2024-02-14T04:42:45;98547.88;;;4.72;100.00
65897;BME280;52677;50.898;10.854;2024-02-14T04:44:45;98552.22;;;4.73;100.00
65897;BME280;52677;50.898;10.854;2024-02-14T04:46:46;98556.66;;;4.78;100.00
65897;BME280;52677;50.898;10.854;2024-02-14T04:48:46;98553.91;;;4.78;100.00
65897;BME280;52677;50.898;10.854;2024-02-14T04:50:46;98550.28;;;4.74;100.00
65897;BME280;52677;50.898;10.854;2024-02-14T04:52:47;98554.47;;;4.71;100.00
65897;BME280;52677;50.898;10.854;2024-02-14T04:54:47;98549.66;;;4.68;100.00
65897;BME280;52677;50.898;10.854;2024-02-14T04:56:47;98548.88;;;4.68;100.00
65897;BME280;52677;50.898;10.854;2024-02-14T04:58:48;98549.31;;;4.70;100.00
65897;BME280;52677;50.898;10.854;2024-02-14T05:00:48;98547.63;;;4.77;100.00
65897;BME280;52677;50.898;10.854;2024-02-14T05:02:49;98543.09;;;4.82;100.00
65897;BME280;52677;50.898;10.854;2024-02-14T05:04:49;98532.25;;;4.85;100.00
65897;BME280;52677;50.898;10.854;2024-02-14T05:06:50;98528.69;;;4.85;100.00
65897;BME280;52677;50.898;10.854;2024-02-14T05:08:50;98540.91;;;4.87;100.00
65897;BME280;52677;50.898;10.854;2024-02-14T05:10:51;98538.66;;;4.89;100.00
65897;BME280;52677;50.898;10.854;2024-02-14T05:12:52;98541.75;;;5.00;100.00
65897;BME280;52677;50.898;10.854;2024-02-14T05:14:52;98543.47;;;5.04;100.00
65897;BME280;52677;50.898;10.854;2024-02-14T05:16:53;98537.09;;;5.13;100.00
65897;BME280;52677;50.898;10.854;2024-02-14T05:18:53;98542.72;;;5.16;100.00
65897;BME280;52677;50.898;10.854;2024-02-14T05:20:53;98531.41;;;5.18;100.00
65897;BME280;52677;50.898;10.854;2024-02-14T05:22:54;98523.97;;;5.18;100.00
65897;BME280;52677;50.898;10.854;2024-02-14T05:24:54;98530.00;;;5.12;100.00
65897;BME280;52677;50.898;10.854;2024-02-14T05:26:55;98527.97;;;5.08;100.00
65897;BME280;52677;50.898;10.854;2024-02-14T05:28:55;98536.28;;;5.00;100.00
65897;BME280;52677;50.898;10.854;2024-02-14T05:30:59;98528.84;;;5.00;100.00
65897;BME280;52677;50.898;10.854;2024-02-14T05:33:00;98518.09;;;4.95;100.00
65897;BME280;52677;50.898;10.854;2024-02-14T05:35:01;98541.50;;;4.93;100.00
65897;BME280;52677;50.898;10.854;2024-02-14T05:37:01;98532.75;;;4.99;100.00
65897;BME280;52677;50.898;10.854;2024-02-14T05:39:03;98537.53;;;5.02;100.00
65897;BME280;52677;50.898;10.854;2024-02-14T05:41:03;98538.81;;;5.05;100.00
65897;BME280;52677;50.898;10.854;2024-02-14T05:43:04;98545.91;;;5.06;100.00
65897;BME280;52677;50.898;10.854;2024-02-14T05:45:04;98533.34;;;5.05;100.00
65897;BME280;52677;50.898;10.854;2024-02-14T05:47:05;98536.13;;;4.96;100.00
65897;BME280;52677;50.898;10.854;2024-02-14T05:49:06;98531.81;;;4.95;100.00
65897;BME280;52677;50.898;10.854;2024-02-14T05:51:07;98523.72;;;4.99;100.00
65897;BME280;52677;50.898;10.854;2024-02-14T05:53:07;98523.81;;;4.90;100.00
65897;BME280;52677;50.898;10.854;2024-02-14T05:55:08;98528.69;;;4.85;100.00
65897;BME280;52677;50.898;10.854;2024-02-14T05:57:09;98534.97;;;4.85;100.00
65897;BME280;52677;50.898;10.854;2024-02-14T05:59:10;98517.38;;;4.86;100.00
65897;BME280;52677;50.898;10.854;2024-02-14T06:01:10;98528.34;;;4.86;100.00
65897;BME280;52677;50.898;10.854;2024-02-14T06:03:11;98522.66;;;4.91;100.00
65897;BME280;52677;50.898;10.854;2024-02-14T06:05:11;98531.50;;;4.97;100.00
65897;BME280;52677;50.898;10.854;2024-02-14T06:07:12;98538.47;;;5.06;100.00
65897;BME280;52677;50.898;10.854;2024-02-14T06:09:12;98529.66;;;5.01;100.00
65897;BME280;52677;50.898;10.854;2024-02-14T06:11:12;98521.78;;;4.99;100.00
65897;BME280;52677;50.898;10.854;2024-02-14T06:13:14;98533.88;;;4.98;100.00
65897;BME280;52677;50.898;10.854;2024-02-14T06:15:14;98535.13;;;5.01;100.00
65897;BME280;52677;50.898;10.854;2024-02-14T06:17:15;98531.38;;;5.05;100.00
65897;BME280;52677;50.898;10.854;2024-02-14T06:19:16;98520.75;;;5.04;100.00
65897;BME280;52677;50.898;10.854;2024-02-14T06:21:17;98518.22;;;4.99;100.00
65897;BME280;52677;50.898;10.854;2024-02-14T06:23:17;98515.25;;;4.92;100.00
65897;BME280;52677;50.898;10.854;2024-02-14T06:25:17;98517.19;;;4.91;100.00
65897;BME280;52677;50.898;10.854;2024-02-14T06:27:18;98525.06;;;4.93;100.00
65897;BME280;52677;50.898;10.854;2024-02-14T06:29:18;98530.91;;;4.91;100.00
65897;BME280;52677;50.898;10.854;2024-02-14T06:31:18;98532.84;;;5.03;100.00
65897;BME280;52677;50.898;10.854;2024-02-14T06:33:19;98525.81;;;5.14;100.00
65897;BME280;52677;50.898;10.854;2024-02-14T06:35:19;98521.47;;;5.13;100.00
65897;BME280;52677;50.898;10.854;2024-02-14T06:37:20;98537.91;;;5.13;100.00
65897;BME280;52677;50.898;10.854;2024-02-14T06:39:21;98524.53;;;5.12;100.00
65897;BME280;52677;50.898;10.854;2024-02-14T06:41:21;98529.44;;;5.06;100.00
65897;BME280;52677;50.898;10.854;2024-02-14T06:43:22;98540.88;;;5.08;100.00
65897;BME280;52677;50.898;10.854;2024-02-14T06:45:22;98548.75;;;5.10;100.00
65897;BME280;52677;50.898;10.854;2024-02-14T06:47:22;98556.28;;;5.13;100.00
65897;BME280;52677;50.898;10.854;2024-02-14T06:49:23;98564.31;;;5.18;100.00
65897;BME280;52677;50.898;10.854;2024-02-14T06:51:23;98570.00;;;5.13;100.00
65897;BME280;52677;50.898;10.854;2024-02-14T06:53:24;98559.16;;;5.16;100.00
65897;BME280;52677;50.898;10.854;2024-02-14T06:55:25;98563.84;;;5.16;100.00
65897;BME280;52677;50.898;10.854;2024-02-14T06:57:26;98564.75;;;5.20;100.00
65897;BME280;52677;50.898;10.854;2024-02-14T06:59:26;98552.78;;;5.36;100.00
65897;BME280;52677;50.898;10.854;2024-02-14T07:01:27;98565.34;;;5.38;100.00
65897;BME280;52677;50.898;10.854;2024-02-14T07:03:27;98552.22;;;5.31;100.00
65897;BME280;52677;50.898;10.854;2024-02-14T07:05:27;98571.53;;;5.34;100.00
65897;BME280;52677;50.898;10.854;2024-02-14T07:07:29;98566.03;;;5.34;100.00
65897;BME280;52677;50.898;10.854;2024-02-14T07:09:29;98570.28;;;5.32;100.00
65897;BME280;52677;50.898;10.854;2024-02-14T07:11:29;98573.03;;;5.32;100.00
65897;BME280;52677;50.898;10.854;2024-02-14T07:13:30;98570.94;;;5.29;100.00
65897;BME280;52677;50.898;10.854;2024-02-14T07:15:30;98557.56;;;5.27;100.00
65897;BME280;52677;50.898;10.854;2024-02-14T07:17:31;98559.19;;;5.28;100.00
65897;BME280;52677;50.898;10.854;2024-02-14T07:19:31;98545.25;;;5.33;100.00
65897;BME280;52677;50.898;10.854;2024-02-14T07:21:31;98551.88;;;5.32;100.00
65897;BME280;52677;50.898;10.854;2024-02-14T07:23:33;98558.63;;;5.35;100.00
65897;BME280;52677;50.898;10.854;2024-02-14T07:25:36;98552.13;;;5.40;100.00
65897;BME280;52677;50.898;10.854;2024-02-14T07:27:37;98547.28;;;5.36;100.00
65897;BME280;52677;50.898;10.854;2024-02-14T07:29:37;98545.34;;;5.37;100.00
65897;BME280;52677;50.898;10.854;2024-02-14T07:31:38;98565.84;;;5.40;100.00
65897;BME280;52677;50.898;10.854;2024-02-14T07:33:38;98574.75;;;5.49;100.00
65897;BME280;52677;50.898;10.854;2024-02-14T07:35:38;98571.09;;;5.57;100.00
65897;BME280;52677;50.898;10.854;2024-02-14T07:37:39;98582.31;;;5.64;100.00
65897;BME280;52677;50.898;10.854;2024-02-14T07:39:39;98581.97;;;5.66;100.00
65897;BME280;52677;50.898;10.854;2024-02-14T07:41:40;98589.50;;;5.69;100.00
65897;BME280;52677;50.898;10.854;2024-02-14T07:43:40;98587.56;;;5.69;100.00
65897;BME280;52677;50.898;10.854;2024-02-14T07:45:41;98584.03;;;5.69;100.00
65897;BME280;52677;50.898;10.854;2024-02-14T07:47:41;98578.31;;;5.74;100.00
65897;BME280;52677;50.898;10.854;2024-02-14T07:49:41;98589.53;;;5.81;100.00
65897;BME280;52677;50.898;10.854;2024-02-14T07:51:42;98598.22;;;5.83;100.00
65897;BME280;52677;50.898;10.854;2024-02-14T07:53:42;98595.91;;;5.85;100.00
65897;BME280;52677;50.898;10.854;2024-02-14T07:55:42;98604.41;;;5.92;100.00
65897;BME280;52677;50.898;10.854;2024-02-14T07:57:44;98602.59;;;5.96;100.00
65897;BME280;52677;50.898;10.854;2024-02-14T07:59:44;98610.09;;;6.11;100.00
65897;BME280;52677;50.898;10.854;2024-02-14T08:01:44;98610.09;;;6.11;100.00
65897;BME280;52677;50.898;10.854;2024-02-14T08:03:45;98607.28;;;6.08;100.00
65897;BME280;52677;50.898;10.854;2024-02-14T08:05:46;98613.66;;;6.12;100.00
65897;BME280;52677;50.898;10.854;2024-02-14T08:07:46;98625.56;;;6.16;100.00
65897;BME280;52677;50.898;10.854;2024-02-14T08:09:47;98616.53;;;6.15;100.00
65897;BME280;52677;50.898;10.854;2024-02-14T08:11:47;98604.41;;;6.16;100.00
65897;BME280;52677;50.898;10.854;2024-02-14T08:13:48;98598.19;;;6.19;100.00
65897;BME280;52677;50.898;10.854;2024-02-14T08:15:48;98601.66;;;6.16;100.00
65897;BME280;52677;50.898;10.854;2024-02-14T08:17:49;98603.03;;;6.23;100.00
65897;BME280;52677;50.898;10.854;2024-02-14T08:19:50;98603.91;;;6.27;100.00
65897;BME280;52677;50.898;10.854;2024-02-14T08:21:50;98620.03;;;6.28;100.00
65897;BME280;52677;50.898;10.854;2024-02-14T08:23:52;98613.75;;;6.28;100.00
65897;BME280;52677;50.898;10.854;2024-02-14T08:25:53;98614.22;;;6.30;100.00
65897;BME280;52677;50.898;10.854;2024-02-14T08:27:53;98616.38;;;6.36;100.00
65897;BME280;52677;50.898;10.854;2024-02-14T08:29:53;98620.03;;;6.40;100.00
65897;BME280;52677;50.898;10.854;2024-02-14T08:31:54;98627.47;;;6.40;100.00
65897;BME280;52677;50.898;10.854;2024-02-14T08:33:54;98623.59;;;6.41;100.00
65897;BME280;52677;50.898;10.854;2024-02-14T08:35:55;98629.19;;;6.44;100.00
65897;BME280;52677;50.898;10.854;2024-02-14T08:37:57;98637.44;;;6.44;100.00
65897;BME280;52677;50.898;10.854;2024-02-14T08:39:57;98638.22;;;6.45;100.00
65897;BME280;52677;50.898;10.854;2024-02-14T08:41:58;98633.19;;;6.47;100.00
65897;BME280;52677;50.898;10.854;2024-02-14T08:43:58;98632.06;;;6.48;100.00
65897;BME280;52677;50.898;10.854;2024-02-14T08:45:58;98637.09;;;6.46;100.00
65897;BME280;52677;50.898;10.854;2024-02-14T08:47:59;98635.94;;;6.47;100.00
65897;BME280;52677;50.898;10.854;2024-02-14T08:49:59;98635.81;;;6.43;100.00
65897;BME280;52677;50.898;10.854;2024-02-14T08:52:00;98638.47;;;6.40;100.00
65897;BME280;52677;50.898;10.854;2024-02-14T08:54:00;98633.19;;;6.47;100.00
65897;BME280;52677;50.898;10.854;2024-02-14T08:56:03;98628.50;;;6.47;100.00
65897;BME280;52677;50.898;10.854;2024-02-14T08:58:04;98633.75;;;6.53;100.00
65897;BME280;52677;50.898;10.854;2024-02-14T09:00:04;98640.25;;;6.60;100.00
65897;BME280;52677;50.898;10.854;2024-02-14T09:02:07;98638.06;;;6.66;100.00
65897;BME280;52677;50.898;10.854;2024-02-14T09:04:08;98621.22;;;6.67;100.00
65897;BME280;52677;50.898;10.854;2024-02-14T09:06:08;98623.16;;;6.67;100.00
65897;BME280;52677;50.898;10.854;2024-02-14T09:08:08;98626.03;;;6.70;100.00
65897;BME280;52677;50.898;10.854;2024-02-14T09:10:09;98614.56;;;6.68;100.00
65897;BME280;52677;50.898;10.854;2024-02-14T09:12:10;98616.72;;;6.75;100.00
65897;BME280;52677;50.898;10.854;2024-02-14T09:14:10;98625.34;;;6.73;100.00
65897;BME280;52677;50.898;10.854;2024-02-14T09:16:11;98618.69;;;6.74;100.00
65897;BME280;52677;50.898;10.854;2024-02-14T09:18:11;98624.63;;;6.76;100.00
65897;BME280;52677;50.898;10.854;2024-02-14T09:20:12;98619.47;;;6.75;100.00
65897;BME280;52677;50.898;10.854;2024-02-14T09:22:14;98619.91;;;6.77;100.00
65897;BME280;52677;50.898;10.854;2024-02-14T09:24:21;98628.28;;;6.81;100.00
65897;BME280;52677;50.898;10.854;2024-02-14T09:26:21;98632.50;;;6.78;100.00
65897;BME280;52677;50.898;10.854;2024-02-14T09:28:21;98618.25;;;6.72;100.00
65897;BME280;52677;50.898;10.854;2024-02-14T09:30:22;98617.16;;;6.77;100.00
65897;BME280;52677;50.898;10.854;2024-02-14T09:32:22;98624.38;;;6.82;100.00
65897;BME280;52677;50.898;10.854;2024-02-14T09:34:23;98619.88;;;6.89;100.00
65897;BME280;52677;50.898;10.854;2024-02-14T09:36:25;98628.22;;;6.93;100.00
65897;BME280;52677;50.898;10.854;2024-02-14T09:38:25;98625.91;;;6.95;100.00
65897;BME280;52677;50.898;10.854;2024-02-14T09:40:27;98629.00;;;7.06;100.00
65897;BME280;52677;50.898;10.854;2024-02-14T09:42:53;98632.03;;;7.16;100.00
65897;BME280;52677;50.898;10.854;2024-02-14T09:44:58;98622.25;;;7.19;100.00
65897;BME280;52677;50.898;10.854;2024-02-14T09:46:59;98605.94;;;7.26;100.00
65897;BME280;52677;50.898;10.854;2024-02-14T09:49:00;98606.69;;;7.39;100.00
65897;BME280;52677;50.898;10.854;2024-02-14T09:51:02;98609.69;;;7.49;100.00
65897;BME280;52677;50.898;10.854;2024-02-14T09:53:03;98607.50;;;7.55;100.00
65897;BME280;52677;50.898;10.854;2024-02-14T09:55:04;98622.75;;;7.52;100.00
65897;BME280;52677;50.898;10.854;2024-02-14T09:57:05;98621.69;;;7.57;100.00
65897;BME280;52677;50.898;10.854;2024-02-14T09:59:06;98626.06;;;7.58;100.00
65897;BME280;52677;50.898;10.854;2024-02-14T10:01:06;98621.16;;;7.67;100.00
65897;BME280;52677;50.898;10.854;2024-02-14T10:03:07;98625.50;;;7.68;100.00
65897;BME280;52677;50.898;10.854;2024-02-14T10:05:07;98617.72;;;7.70;100.00
65897;BME280;52677;50.898;10.854;2024-02-14T10:07:08;98612.72;;;7.76;100.00
65897;BME280;52677;50.898;10.854;2024-02-14T10:09:08;98620.28;;;7.79;100.00
65897;BME280;52677;50.898;10.854;2024-02-14T10:11:10;98616.19;;;7.73;100.00
65897;BME280;52677;50.898;10.854;2024-02-14T10:13:11;98623.03;;;7.79;100.00
65897;BME280;52677;50.898;10.854;2024-02-14T10:15:11;98618.69;;;7.78;100.00
65897;BME280;52677;50.898;10.854;2024-02-14T10:17:18;98634.94;;;7.83;100.00
65897;BME280;52677;50.898;10.854;2024-02-14T10:19:19;98644.78;;;7.84;100.00
65897;BME280;52677;50.898;10.854;2024-02-14T10:21:19;98644.00;;;7.83;100.00
65897;BME280;52677;50.898;10.854;2024-02-14T10:23:22;98646.75;;;7.83;100.00
65897;BME280;52677;50.898;10.854;2024-02-14T10:25:22;98644.91;;;7.87;100.00
65897;BME280;52677;50.898;10.854;2024-02-14T10:27:23;98651.56;;;7.86;100.00
65897;BME280;52677;50.898;10.854;2024-02-14T10:29:23;98643.56;;;7.81;100.00
65897;BME280;52677;50.898;10.854;2024-02-14T10:31:25;98654.56;;;7.81;100.00